Time;durP1;ratioP1;P1;durP2;ratioP2;P2;SDS_P1;SDS_P2;PMS_P1;PMS_P2;Temp;Humidity;BMP_temperature;BMP_pressure;BME280_temperature;BME280_humidity;BME280_pressure;Samples;Min_cycle;Max_cycle;Signal;HPM_P1;HPM_P2
2021/09/11 00:00:40;;;;;;;27.87;12.60;;;;;;;13.91;65.38;100740.48;126342;1099;104240;-81
2021/09/11 00:03:11;;;;;;;28.27;12.30;;;;;;;13.89;65.80;100735.17;126295;1099;104142;-80
2021/09/11 00:05:41;;;;;;;25.67;12.50;;;;;;;13.87;65.51;100739.52;126302;1099;104240;-80
2021/09/11 00:08:12;;;;;;;25.43;11.73;;;;;;;13.86;65.90;100735.09;126357;1099;104206;-81
2021/09/11 00:10:43;;;;;;;24.27;12.23;;;;;;;13.85;65.18;100741.20;126305;1099;104230;-82
2021/09/11 00:13:14;;;;;;;24.67;12.30;;;;;;;13.83;65.96;100733.25;126341;1099;104168;-81
2021/09/11 00:15:44;;;;;;;27.87;12.50;;;;;;;13.81;65.99;100724.41;126215;1099;104354;-80
2021/09/11 00:18:15;;;;;;;24.90;12.13;;;;;;;13.82;66.32;100727.94;126340;1099;104174;-80
2021/09/11 00:20:46;;;;;;;25.60;11.70;;;;;;;13.79;66.22;100726.13;126325;1099;104177;-80
2021/09/11 00:23:17;;;;;;;24.83;12.00;;;;;;;13.76;65.72;100727.77;126309;1099;104137;-80
2021/09/11 00:25:47;;;;;;;27.93;11.60;;;;;;;13.72;66.49;100733.84;126309;1099;104287;-80
2021/09/11 00:28:18;;;;;;;26.00;12.00;;;;;;;13.69;66.09;100729.37;126348;1099;104146;-81
2021/09/11 00:30:49;;;;;;;22.43;11.30;;;;;;;13.66;66.14;100724.92;126320;1099;104163;-80
2021/09/11 00:33:19;;;;;;;26.13;12.03;;;;;;;13.63;66.50;100730.12;126204;1099;104501;-79
2021/09/11 00:35:51;;;;;;;28.77;12.67;;;;;;;13.58;66.13;100726.44;125187;1099;104315;-80
2021/09/11 00:38:21;;;;;;;27.43;12.57;;;;;;;13.55;66.76;100728.11;126191;1099;104718;-79
2021/09/11 00:40:52;;;;;;;25.77;11.23;;;;;;;13.51;66.06;100729.78;125270;1099;104198;-81
2021/09/11 00:43:28;;;;;;;27.43;11.90;;;;;;;13.46;66.53;100727.02;125321;1099;104392;-80
2021/09/11 00:45:58;;;;;;;29.23;12.37;;;;;;;13.44;66.80;100733.09;126155;1099;104162;-79
2021/09/11 00:48:29;;;;;;;27.07;11.53;;;;;;;13.40;66.93;100736.47;126207;1099;104178;-80
2021/09/11 00:51:00;;;;;;;27.13;11.67;;;;;;;13.39;67.11;100737.34;126219;1099;104156;-79
2021/09/11 00:53:31;;;;;;;27.97;11.57;;;;;;;13.38;66.59;100732.91;126204;1099;104191;-81
2021/09/11 00:56:04;;;;;;;26.23;11.63;;;;;;;13.34;67.04;100731.03;126152;1099;104149;-80
2021/09/11 00:58:35;;;;;;;28.60;11.70;;;;;;;13.31;67.68;100737.98;126206;1099;104576;-80
2021/09/11 01:01:07;;;;;;;27.37;11.57;;;;;;;13.32;67.00;100733.59;126188;1098;104325;-80
2021/09/11 01:03:37;;;;;;;25.87;11.57;;;;;;;13.33;67.70;100742.41;126237;1098;105228;-81
2021/09/11 01:06:08;;;;;;;24.10;11.37;;;;;;;13.32;67.18;100738.86;125991;1099;104229;-79
2021/09/11 01:08:40;;;;;;;29.33;11.10;;;;;;;13.32;67.27;100738.86;126350;1098;104114;-79
2021/09/11 01:11:12;;;;;;;25.80;11.20;;;;;;;13.32;67.67;100738.86;126342;1099;104799;-78
2021/09/11 01:13:43;;;;;;;26.10;11.43;;;;;;;13.31;67.67;100737.98;126339;1097;104139;-79
2021/09/11 01:16:13;;;;;;;28.83;11.27;;;;;;;13.27;67.55;100741.36;126297;1099;104213;-80
2021/09/11 01:18:45;;;;;;;27.60;12.10;;;;;;;13.26;68.06;100736.05;126347;1099;111949;-81
2021/09/11 01:21:15;;;;;;;23.90;11.10;;;;;;;13.22;67.69;100734.20;126357;1099;104217;-80
2021/09/11 01:23:46;;;;;;;24.00;10.43;;;;;;;13.22;67.51;100737.72;126332;1099;104320;-81
2021/09/11 01:26:17;;;;;;;23.33;10.47;;;;;;;13.22;67.37;100729.81;126270;1098;104277;-80
2021/09/11 01:28:47;;;;;;;22.77;10.20;;;;;;;13.23;67.39;100730.69;126232;1099;104300;-79
2021/09/11 01:31:18;;;;;;;26.37;11.27;;;;;;;13.24;67.23;100730.73;126335;1099;104137;-80
2021/09/11 01:33:49;;;;;;;25.33;10.80;;;;;;;13.24;67.09;100728.09;126276;1099;104342;-79
2021/09/11 01:36:19;;;;;;;25.03;11.60;;;;;;;13.24;67.18;100722.83;126345;1099;104240;-80
2021/09/11 01:38:50;;;;;;;24.97;11.43;;;;;;;13.25;67.92;100729.02;126267;1099;104171;-80
2021/09/11 01:41:21;;;;;;;24.07;10.63;;;;;;;13.22;67.61;100727.17;126286;1097;104576;-79
2021/09/11 01:43:52;;;;;;;26.77;10.50;;;;;;;13.20;67.17;100725.33;126306;1099;104297;-81
2021/09/11 01:46:22;;;;;;;25.23;10.87;;;;;;;13.17;67.43;100723.52;126335;1099;104293;-80
2021/09/11 01:48:53;;;;;;;24.60;10.83;;;;;;;13.17;67.80;100718.25;126326;1098;104153;-80
2021/09/11 01:51:23;;;;;;;23.43;10.57;;;;;;;13.15;67.40;100730.50;126331;1099;104725;-81
2021/09/11 01:53:54;;;;;;;25.57;11.17;;;;;;;13.13;67.67;100726.91;126332;1099;104242;-80
2021/09/11 01:56:24;;;;;;;25.13;10.20;;;;;;;13.10;67.63;100726.81;126356;1099;104156;-80
2021/09/11 01:58:55;;;;;;;28.53;12.30;;;;;;;13.08;67.43;100728.53;126301;1099;104137;-81
2021/09/11 02:01:26;;;;;;;25.07;12.23;;;;;;;13.03;67.81;100725.76;126346;1099;104142;-81
2021/09/11 02:03:56;;;;;;;26.80;11.30;;;;;;;12.99;67.84;100723.87;126166;1099;104246;-80
2021/09/11 02:06:28;;;;;;;25.73;10.83;;;;;;;12.94;68.14;100718.47;126244;1099;104159;-79
2021/09/11 02:08:58;;;;;;;25.77;10.70;;;;;;;12.93;67.92;100719.34;125469;1099;104165;-80
2021/09/11 02:11:29;;;;;;;23.80;10.13;;;;;;;12.92;68.41;100720.17;125331;1099;104278;-81
2021/09/11 02:13:59;;;;;;;27.17;11.77;;;;;;;12.93;67.91;100718.42;125307;1099;104162;-79
2021/09/11 02:16:30;;;;;;;26.07;11.90;;;;;;;12.93;68.24;100721.97;126170;1099;104222;-78
2021/09/11 02:19:01;;;;;;;26.27;12.23;;;;;;;12.93;68.17;100719.34;125433;1099;104387;-80
2021/09/11 02:21:31;;;;;;;24.30;11.35;;;;;;;12.89;68.28;100717.45;126180;1099;104191;-79
2021/09/11 02:24:02;;;;;;;25.90;11.73;;;;;;;12.87;68.41;100718.23;126250;1099;104723;-80
2021/09/11 02:26:33;;;;;;;27.20;11.60;;;;;;;12.86;68.58;100719.98;125327;1099;104463;-81
2021/09/11 02:29:04;;;;;;;26.20;11.37;;;;;;;12.84;68.96;100721.70;126165;1099;104409;-80
2021/09/11 02:31:35;;;;;;;28.10;11.60;;;;;;;12.84;68.41;100724.33;125418;1099;104185;-79
2021/09/11 02:34:05;;;;;;;25.70;12.33;;;;;;;12.82;68.81;100725.12;126181;1099;104384;-80
2021/09/11 02:36:36;;;;;;;27.57;12.43;;;;;;;12.77;68.92;100727.61;126325;1099;104322;-79
2021/09/11 02:39:08;;;;;;;27.47;12.47;;;;;;;12.73;69.23;100728.34;126293;1099;104343;-80
2021/09/11 02:41:38;;;;;;;24.20;12.07;;;;;;;12.65;69.67;100728.11;126297;1098;104303;-80
2021/09/11 02:44:09;;;;;;;26.35;11.95;;;;;;;12.61;69.54;100734.16;126371;1099;104197;-80
2021/09/11 02:46:40;;;;;;;27.67;11.87;;;;;;;12.57;69.22;100730.54;126339;1099;104312;-80
2021/09/11 02:49:11;;;;;;;28.37;11.40;;;;;;;12.54;69.51;100725.18;126237;1099;104278;-81
2021/09/11 02:51:41;;;;;;;26.23;11.40;;;;;;;12.52;69.29;100721.59;126379;1099;104187;-81
2021/09/11 02:54:12;;;;;;;25.30;11.43;;;;;;;12.53;69.63;100733.91;126289;1099;104249;-80
2021/09/11 02:56:43;;;;;;;29.20;11.63;;;;;;;12.52;69.74;100732.11;126304;1099;104198;-80
2021/09/11 02:59:13;;;;;;;25.57;11.97;;;;;;;12.50;69.67;100725.03;126280;1099;104589;-80
2021/09/11 03:01:44;;;;;;;23.80;11.70;;;;;;;12.48;69.26;100730.25;126284;1099;104159;-80
2021/09/11 03:04:15;;;;;;;30.57;12.30;;;;;;;12.48;69.52;100719.72;126361;1099;104204;-80
2021/09/11 03:06:45;;;;;;;25.50;12.03;;;;;;;12.48;69.36;100721.44;126258;1099;104179;-80
2021/09/11 03:09:16;;;;;;;26.17;11.57;;;;;;;12.48;69.65;100730.25;126352;1099;104271;-80
2021/09/11 03:11:46;;;;;;;26.20;11.57;;;;;;;12.47;69.53;100720.55;126202;1099;104268;-80
2021/09/11 03:14:17;;;;;;;23.93;11.23;;;;;;;12.46;69.68;100729.28;126330;1099;104192;-81
2021/09/11 03:16:48;;;;;;;25.90;12.10;;;;;;;12.45;69.76;100732.78;126369;1099;104271;-81
2021/09/11 03:19:18;;;;;;;25.17;11.20;;;;;;;12.43;69.96;100736.20;126207;1099;104616;-79
2021/09/11 03:21:49;;;;;;;26.20;11.23;;;;;;;12.39;69.60;100740.48;126299;1098;104622;-81
2021/09/11 03:24:20;;;;;;;23.67;11.30;;;;;;;12.36;69.96;100743.02;126366;1099;104152;-81
2021/09/11 03:26:50;;;;;;;24.50;10.67;;;;;;;12.33;69.94;100737.66;126311;1099;105429;-80
2021/09/11 03:29:21;;;;;;;25.67;10.97;;;;;;;12.31;69.79;100734.97;126332;1099;104308;-80
2021/09/11 03:31:51;;;;;;;23.83;9.83;;;;;;;12.30;69.94;100735.80;126346;1099;104405;-80
2021/09/11 03:34:23;;;;;;;25.20;10.23;;;;;;;12.30;70.00;100732.29;126367;1099;104146;-80
2021/09/11 03:36:56;;;;;;;24.93;10.37;;;;;;;12.30;70.09;100734.92;126333;1098;104312;-80
2021/09/11 03:39:29;;;;;;;21.17;10.00;;;;;;;12.31;70.27;100734.05;126244;1099;105533;-80
2021/09/11 03:42:00;;;;;;;22.73;9.97;;;;;;;12.31;70.13;100737.60;126291;1099;104377;-79
2021/09/11 03:44:33;;;;;;;22.83;10.53;;;;;;;12.29;70.14;100738.38;126291;1099;104174;-81
2021/09/11 03:47:06;;;;;;;24.83;10.83;;;;;;;12.26;69.87;100740.91;126300;1099;104281;-81
2021/09/11 03:49:38;;;;;;;22.13;10.13;;;;;;;12.22;70.14;100732.92;126302;1099;104175;-81
2021/09/11 03:52:10;;;;;;;23.03;10.27;;;;;;;12.19;70.43;100737.20;126353;1099;104153;-79
2021/09/11 03:54:44;;;;;;;24.70;10.10;;;;;;;12.16;70.59;100729.20;126352;1099;104149;-79
2021/09/11 03:57:16;;;;;;;24.18;9.98;;;;;;;12.13;71.01;100740.51;126247;1099;104222;-78
2021/09/11 03:59:46;;;;;;;22.00;9.70;;;;;;;12.12;71.07;100735.20;126246;1099;104146;-80
2021/09/11 04:02:17;;;;;;;20.95;9.90;;;;;;;12.12;70.71;100727.30;126301;1099;104165;-80
2021/09/11 04:04:47;;;;;;;23.67;9.50;;;;;;;12.13;70.81;100737.88;126239;1099;104136;-81
2021/09/11 04:07:18;;;;;;;24.00;9.23;;;;;;;12.13;71.17;100727.36;126352;1099;104156;-79
2021/09/11 04:09:49;;;;;;;22.30;9.13;;;;;;;12.16;70.54;100730.09;126227;1099;104188;-80
2021/09/11 04:12:19;;;;;;;21.10;9.67;;;;;;;12.18;70.91;100728.39;126365;1099;104168;-79
2021/09/11 04:14:52;;;;;;;18.87;9.40;;;;;;;12.19;70.93;100735.45;126326;1099;104157;-80
2021/09/11 04:17:24;;;;;;;19.90;9.40;;;;;;;12.18;70.52;100728.39;126367;1099;104188;-80
2021/09/11 04:19:55;;;;;;;23.43;10.07;;;;;;;12.21;70.78;100733.75;126317;1097;104368;-80
2021/09/11 04:22:25;;;;;;;25.60;8.87;;;;;;;12.23;70.70;100739.06;126250;1099;108122;-80
2021/09/11 04:24:56;;;;;;;20.77;9.00;;;;;;;12.26;70.89;100730.39;126354;1099;104143;-79
2021/09/11 04:27:27;;;;;;;22.80;9.23;;;;;;;12.29;70.62;100735.75;126309;1099;104264;-80
2021/09/11 04:29:58;;;;;;;21.73;9.10;;;;;;;12.32;70.73;100738.48;126366;1099;104149;-79
2021/09/11 04:32:29;;;;;;;21.87;9.40;;;;;;;12.38;70.76;100738.69;126261;1099;119020;-82
2021/09/11 04:35:01;;;;;;;20.37;9.90;;;;;;;12.41;70.87;100739.66;126290;1099;104305;-80
2021/09/11 04:37:32;;;;;;;22.20;9.60;;;;;;;12.44;70.80;100738.00;126241;1099;104297;-80
2021/09/11 04:40:03;;;;;;;20.67;9.50;;;;;;;12.46;70.90;100741.56;126312;1099;104315;-79
2021/09/11 04:42:34;;;;;;;23.10;9.80;;;;;;;12.48;71.03;100735.52;126339;1099;104182;-80
2021/09/11 04:45:06;;;;;;;23.17;8.90;;;;;;;12.51;70.77;100734.70;126305;1099;104172;-81
2021/09/11 04:47:37;;;;;;;22.07;8.87;;;;;;;12.53;71.16;100741.81;126325;1099;104332;-79
2021/09/11 04:50:09;;;;;;;23.33;8.87;;;;;;;12.57;70.82;100742.78;126340;1099;104149;-79
2021/09/11 04:52:39;;;;;;;21.27;8.43;;;;;;;12.61;70.97;100741.16;126227;1099;105478;-79
2021/09/11 04:55:11;;;;;;;21.87;8.50;;;;;;;12.65;70.92;100745.66;126322;1099;104188;-79
2021/09/11 04:57:42;;;;;;;22.47;9.27;;;;;;;12.70;70.81;100747.60;126290;1099;104239;-79
2021/09/11 05:00:15;;;;;;;21.13;9.03;;;;;;;12.74;70.64;100746.83;126302;1099;104332;-80
2021/09/11 05:02:46;;;;;;;21.03;9.47;;;;;;;12.80;70.61;100743.50;126236;1099;104177;-79
2021/09/11 05:05:17;;;;;;;26.23;9.00;;;;;;;12.84;70.50;100729.59;126347;1099;104291;-80
2021/09/11 05:07:47;;;;;;;21.67;9.53;;;;;;;12.89;70.91;100733.25;126205;1099;104258;-80
2021/09/11 05:10:18;;;;;;;22.13;8.90;;;;;;;12.93;70.40;100724.60;126215;1099;104240;-81
2021/09/11 05:12:51;;;;;;;21.57;9.17;;;;;;;12.99;70.59;100723.87;126054;1099;104304;-81
2021/09/11 05:15:22;;;;;;;22.27;8.73;;;;;;;13.05;70.64;100731.95;126197;1099;104319;-79
2021/09/11 05:17:53;;;;;;;19.17;8.43;;;;;;;13.15;70.49;100721.68;126176;1099;104146;-80
2021/09/11 05:20:23;;;;;;;22.30;8.80;;;;;;;13.22;70.34;100721.91;126204;1099;104146;-80
2021/09/11 05:22:55;;;;;;;21.97;8.70;;;;;;;13.31;70.37;100722.16;126085;1099;104729;-80
2021/09/11 05:25:26;;;;;;;21.63;8.80;;;;;;;13.39;69.73;100717.14;125365;1099;104219;-77
2021/09/11 05:27:56;;;;;;;22.03;8.73;;;;;;;13.47;69.42;100723.51;126165;1099;104351;-80
2021/09/11 05:30:27;;;;;;;20.33;8.57;;;;;;;13.56;69.36;100727.27;126139;1099;104258;-81
2021/09/11 05:32:58;;;;;;;21.00;9.37;;;;;;;13.62;69.44;100730.95;126078;1099;104256;-81
2021/09/11 05:35:32;;;;;;;19.80;8.63;;;;;;;13.71;69.62;100735.56;126131;1099;105083;-80
2021/09/11 05:38:02;;;;;;;20.37;8.40;;;;;;;13.78;69.43;100732.25;126129;1099;104191;-80
2021/09/11 05:40:33;;;;;;;19.13;8.90;;;;;;;13.86;69.05;100735.09;126062;1099;104307;-82
2021/09/11 05:43:03;;;;;;;22.87;9.30;;;;;;;13.94;69.34;100730.89;126292;1099;104143;-80
2021/09/11 05:45:34;;;;;;;22.30;8.77;;;;;;;14.00;69.21;100733.69;126333;1097;104165;-81
2021/09/11 05:48:06;;;;;;;22.67;8.83;;;;;;;14.09;69.23;100729.52;126335;1099;104212;-80
2021/09/11 05:50:37;;;;;;;19.93;7.97;;;;;;;14.15;68.95;100734.95;126324;1099;104194;-80
2021/09/11 05:53:07;;;;;;;18.43;7.70;;;;;;;14.23;68.66;100733.39;126199;1099;104243;-81
2021/09/11 05:55:38;;;;;;;18.53;8.23;;;;;;;14.31;68.51;100734.45;126333;1099;104258;-82
2021/09/11 05:58:09;;;;;;;21.80;8.57;;;;;;;14.41;68.21;100735.55;126346;1098;104171;-82
2021/09/11 06:00:39;;;;;;;23.13;8.67;;;;;;;14.48;68.08;100737.50;126321;1099;104194;-80
2021/09/11 06:03:10;;;;;;;21.70;8.43;;;;;;;14.56;67.99;100737.68;126212;1099;104305;-80
2021/09/11 06:05:41;;;;;;;21.87;8.67;;;;;;;14.63;67.70;100742.29;126292;1099;104165;-80
2021/09/11 06:08:11;;;;;;;23.43;9.10;;;;;;;14.70;68.37;100746.84;126341;1099;104714;-80
2021/09/11 06:10:42;;;;;;;18.53;8.13;;;;;;;14.80;67.80;100742.64;126337;1099;104143;-80
2021/09/11 06:13:13;;;;;;;23.77;9.13;;;;;;;14.89;67.66;100739.33;126304;1099;104287;-81
2021/09/11 06:15:45;;;;;;;23.73;9.33;;;;;;;14.97;67.38;100740.38;126256;1099;104307;-80
2021/09/11 06:18:16;;;;;;;25.80;9.10;;;;;;;15.03;67.68;100735.22;126287;1099;104187;-80
2021/09/11 06:20:47;;;;;;;23.03;9.23;;;;;;;15.09;67.97;100737.99;126324;1099;104149;-80
2021/09/11 06:23:18;;;;;;;23.17;9.13;;;;;;;15.18;67.92;100747.00;126290;1098;104227;-80
2021/09/11 06:25:49;;;;;;;24.20;8.60;;;;;;;15.28;67.00;100746.31;126292;1099;104260;-79
2021/09/11 06:28:21;;;;;;;22.60;8.97;;;;;;;15.42;66.77;100743.95;126345;1099;104328;-78
2021/09/11 06:30:59;;;;;;;21.40;8.93;;;;;;;15.59;66.59;100744.27;126342;1099;104155;-79
2021/09/11 06:33:30;;;;;;;26.97;9.17;;;;;;;15.75;66.68;100749.00;126233;1099;104221;-80
2021/09/11 06:36:00;;;;;;;22.93;8.90;;;;;;;15.90;67.27;100755.47;126365;1099;104136;-80
2021/09/11 06:38:31;;;;;;;24.63;9.23;;;;;;;16.05;66.66;100754.83;126331;1099;104253;-80
2021/09/11 06:41:02;;;;;;;22.53;8.97;;;;;;;16.20;66.28;100748.91;126341;1099;104302;-80
2021/09/11 06:43:34;;;;;;;26.45;9.15;;;;;;;16.34;66.26;100744.73;126263;1099;105021;-80
2021/09/11 06:46:05;;;;;;;23.70;9.63;;;;;;;16.48;66.00;100743.17;126302;1099;104197;-80
2021/09/11 06:48:36;;;;;;;25.13;9.00;;;;;;;16.62;66.07;100750.45;126312;1098;105197;-81
2021/09/11 06:51:06;;;;;;;25.90;9.57;;;;;;;16.78;65.63;100741.87;126317;1099;104216;-80
2021/09/11 06:53:40;;;;;;;26.30;9.50;;;;;;;16.92;65.41;100739.42;126259;1099;104325;-80
2021/09/11 06:56:09;;;;;;;;;;;;;;;17.08;64.22;100748.49;126370;1099;104309;-81
2021/09/11 06:58:40;;;;;;;24.57;9.80;;;;;;;17.21;64.90;100752.18;126272;1099;104185;-79
2021/09/11 07:01:11;;;;;;;22.30;9.37;;;;;;;17.35;64.28;100744.39;126365;1099;104127;-81
2021/09/11 07:03:42;;;;;;;24.60;9.53;;;;;;;17.47;63.98;100744.54;126305;1098;104205;-80
2021/09/11 07:06:13;;;;;;;28.47;9.33;;;;;;;17.65;64.00;100742.95;126321;1099;104191;-80
2021/09/11 07:08:44;;;;;;;22.13;8.97;;;;;;;17.79;64.14;100746.63;126338;1097;104149;-80
2021/09/11 07:11:15;;;;;;;23.13;9.77;;;;;;;17.94;63.13;100746.81;126335;1099;104210;-80
2021/09/11 07:13:46;;;;;;;26.63;9.53;;;;;;;18.11;62.94;100744.31;126327;1099;104146;-80
2021/09/11 07:16:16;;;;;;;25.00;8.80;;;;;;;18.31;62.38;100740.95;126278;1099;104223;-79
2021/09/11 07:18:49;;;;;;;25.67;8.87;;;;;;;18.47;62.15;100744.61;126158;1099;104274;-80
2021/09/11 07:21:20;;;;;;;23.23;9.90;;;;;;;18.57;61.38;100738.45;126280;1099;104133;-81
2021/09/11 07:23:51;;;;;;;23.60;9.73;;;;;;;18.68;62.03;100744.75;126278;1099;104181;-79
2021/09/11 07:26:22;;;;;;;23.47;9.27;;;;;;;18.80;61.17;100737.72;126324;1099;104233;-80
2021/09/11 07:28:52;;;;;;;24.43;9.87;;;;;;;18.96;61.44;100741.38;126277;1099;104245;-81
2021/09/11 07:31:23;;;;;;;23.70;9.60;;;;;;;19.14;60.39;100729.95;126330;1099;104155;-81
2021/09/11 07:33:54;;;;;;;22.37;9.73;;;;;;;19.32;59.91;100730.03;126324;1099;104656;-80
2021/09/11 07:36:25;;;;;;;26.53;10.30;;;;;;;19.54;60.41;100732.72;126335;1099;101788;-80
2021/09/11 07:38:55;;;;;;;24.17;9.40;;;;;;;19.73;59.28;100725.69;126334;1099;104172;-80
2021/09/11 07:41:26;;;;;;;24.93;9.40;;;;;;;19.89;59.80;100727.50;126321;1099;104160;-81
2021/09/11 07:43:58;;;;;;;30.03;10.10;;;;;;;20.03;58.88;100723.97;126308;1097;104175;-80
2021/09/11 07:46:28;;;;;;;26.63;9.47;;;;;;;20.11;58.31;100727.52;126165;1099;104277;-80
2021/09/11 07:48:59;;;;;;;26.67;9.90;;;;;;;20.20;57.03;100727.52;126178;1099;104232;-78
2021/09/11 07:51:30;;;;;;;26.90;10.20;;;;;;;20.33;57.25;100725.73;126183;1099;104188;-79
2021/09/11 07:54:01;;;;;;;27.30;9.87;;;;;;;20.43;57.35;100732.83;125480;1099;104166;-80
2021/09/11 07:56:32;;;;;;;24.20;10.13;;;;;;;20.51;57.38;100727.50;126080;1099;107800;-80
2021/09/11 07:59:04;;;;;;;24.27;10.23;;;;;;;20.63;57.03;100726.56;126190;1099;104296;-79
2021/09/11 08:01:35;;;;;;;22.57;9.23;;;;;;;20.76;56.62;100724.81;126201;1099;104214;-80
2021/09/11 08:04:05;;;;;;;25.23;9.73;;;;;;;20.87;55.78;100728.33;126187;1099;104184;-79
2021/09/11 08:06:36;;;;;;;23.13;9.30;;;;;;;20.94;55.80;100711.42;125969;1099;104985;-80
2021/09/11 08:09:07;;;;;;;24.73;9.00;;;;;;;21.03;55.84;100710.48;126158;1099;104447;-80
2021/09/11 08:11:37;;;;;;;27.50;9.57;;;;;;;21.13;56.36;100703.31;126200;1099;104313;-80
2021/09/11 08:14:08;;;;;;;22.67;9.60;;;;;;;21.20;56.16;100715.75;126213;1099;104197;-79
2021/09/11 08:16:39;;;;;;;22.67;9.67;;;;;;;21.32;55.57;100709.48;126149;1099;104389;-81
2021/09/11 08:19:10;;;;;;;22.97;9.40;;;;;;;21.41;54.94;100709.43;126295;1099;104319;-80
2021/09/11 08:21:40;;;;;;;25.27;10.17;;;;;;;21.51;55.62;100700.48;126279;1099;104152;-78
2021/09/11 08:24:11;;;;;;;24.47;10.23;;;;;;;21.62;54.33;100711.09;126340;1099;104252;-78
2021/09/11 08:26:41;;;;;;;20.60;9.40;;;;;;;21.72;54.71;100706.57;126290;1099;104249;-79
2021/09/11 08:29:12;;;;;;;26.37;9.73;;;;;;;21.78;54.13;100701.19;126361;1099;104663;-80
2021/09/11 08:31:43;;;;;;;23.90;9.40;;;;;;;21.87;54.17;100698.45;126332;1099;104223;-79
2021/09/11 08:34:14;;;;;;;21.50;9.90;;;;;;;22.00;53.74;100693.01;126286;1099;104361;-79
2021/09/11 08:36:44;;;;;;;22.57;9.23;;;;;;;22.07;54.24;100702.77;126268;1099;104146;-79
2021/09/11 08:39:16;;;;;;;21.97;9.20;;;;;;;22.13;53.28;100696.45;126316;1098;104149;-79
2021/09/11 08:41:47;;;;;;;23.87;9.53;;;;;;;22.21;52.60;100697.30;126339;1098;104156;-79
2021/09/11 08:44:18;;;;;;;26.00;10.25;;;;;;;22.25;53.08;100686.56;126347;1099;104150;-79
2021/09/11 08:46:48;;;;;;;24.37;9.37;;;;;;;22.30;53.13;100682.94;126219;1099;104179;-79
2021/09/11 08:49:19;;;;;;;23.93;9.17;;;;;;;22.36;52.78;100678.48;126338;1099;104245;-80
2021/09/11 08:51:50;;;;;;;27.00;10.70;;;;;;;22.46;52.70;100676.59;126335;1098;104219;-79
2021/09/11 08:54:21;;;;;;;25.23;10.17;;;;;;;22.59;52.95;100670.22;126301;1099;104197;-80
2021/09/11 08:56:54;;;;;;;23.57;9.47;;;;;;;22.74;52.44;100673.61;126278;1098;104294;-80
2021/09/11 08:59:27;;;;;;;21.70;9.75;;;;;;;22.88;52.40;100655.59;126309;1099;104140;-79
2021/09/11 09:02:10;;;;;;;23.67;9.70;;;;;;;23.02;52.39;100663.44;126315;1099;104140;-80
2021/09/11 09:04:52;;;;;;;21.87;9.70;;;;;;;23.10;52.16;100658.90;126316;1099;104169;-80
2021/09/11 09:07:35;;;;;;;26.10;9.87;;;;;;;23.17;51.70;100661.49;126267;1099;104162;-80
2021/09/11 09:10:10;;;;;;;25.10;9.80;;;;;;;23.27;51.92;100661.34;126353;1099;104249;-79
2021/09/11 09:12:42;;;;;;;21.10;9.10;;;;;;;23.32;51.69;100656.80;126362;1099;104203;-79
2021/09/11 09:15:15;;;;;;;22.60;9.93;;;;;;;23.39;51.51;100656.71;126358;1097;104143;-80
2021/09/11 09:17:49;;;;;;;22.13;9.75;;;;;;;23.43;51.29;100658.45;126307;1099;104195;-79
2021/09/11 09:20:23;;;;;;;23.57;9.70;;;;;;;23.49;50.49;100655.67;126364;1099;104198;-80
2021/09/11 09:23:17;;;;;;;21.00;9.50;;;;;;;23.54;50.48;100667.20;126376;1099;104156;-79
2021/09/11 09:25:48;;;;;;;23.22;9.73;;;;;;;23.61;50.25;100655.48;126239;1099;104182;-80
2021/09/11 09:28:18;;;;;;;20.67;9.33;;;;;;;23.66;50.36;100650.06;126163;1099;104360;-79
2021/09/11 09:30:50;;;;;;;24.20;9.30;;;;;;;23.74;50.12;100653.49;126235;1099;104302;-79
2021/09/11 09:33:23;;;;;;;23.27;8.93;;;;;;;23.79;50.08;100650.73;126200;1099;104325;-79
2021/09/11 09:35:54;;;;;;;23.03;9.53;;;;;;;23.83;49.82;100653.34;126254;1099;104142;-79
2021/09/11 09:38:25;;;;;;;17.23;8.43;;;;;;;23.91;49.24;100653.25;126048;1099;104146;-79
2021/09/11 09:40:56;;;;;;;20.93;9.10;;;;;;;23.97;49.21;100653.14;126194;1099;104182;-80
2021/09/11 09:43:42;;;;;;;23.00;8.90;;;;;;;24.02;49.25;100648.58;126172;1099;104201;-79
2021/09/11 09:46:14;;;;;;;21.57;8.93;;;;;;;24.07;48.55;100648.50;126191;1099;104334;-80
2021/09/11 09:48:48;;;;;;;24.23;9.77;;;;;;;24.13;48.72;100634.98;126072;1099;118944;-79
2021/09/11 09:51:20;;;;;;;21.17;8.70;;;;;;;24.18;49.09;100635.80;126171;1099;104201;-80
2021/09/11 09:53:51;;;;;;;23.27;8.93;;;;;;;24.19;47.57;100634.88;126209;1099;104775;-80
2021/09/11 09:56:22;;;;;;;21.17;9.23;;;;;;;24.29;47.58;100630.22;126221;1099;104293;-79
2021/09/11 09:58:54;;;;;;;23.10;9.00;;;;;;;24.37;47.24;100627.39;126170;1099;104309;-80
2021/09/11 10:01:25;;;;;;;18.77;8.30;;;;;;;24.45;47.70;100622.78;126326;1097;105141;-79
2021/09/11 10:03:56;;;;;;;19.43;8.60;;;;;;;24.58;47.27;100618.95;126314;1096;104136;-79
2021/09/11 10:06:31;;;;;;;20.53;8.13;;;;;;;24.69;46.62;100620.55;126297;1099;104300;-79
2021/09/11 10:09:06;;;;;;;18.60;8.40;;;;;;;24.74;46.62;100615.95;126245;1099;105927;-79
2021/09/11 10:11:39;;;;;;;18.80;8.27;;;;;;;24.84;46.45;100616.63;126362;1099;104628;-80
2021/09/11 10:14:15;;;;;;;16.67;7.83;;;;;;;24.91;45.39;100621.84;126365;1099;104245;-79
2021/09/11 10:16:58;;;;;;;18.57;8.13;;;;;;;24.91;45.12;100613.78;126352;1097;104150;-79
2021/09/11 10:19:30;;;;;;;15.33;7.67;;;;;;;24.91;44.20;100615.59;126278;1099;104143;-79
2021/09/11 10:22:24;;;;;;;17.55;7.78;;;;;;;24.91;43.94;100612.91;126279;1098;104169;-79
2021/09/11 10:25:03;;;;;;;18.98;7.80;;;;;;;24.99;44.26;100612.74;126308;1099;104217;-80
2021/09/11 10:27:40;;;;;;;17.40;7.20;;;;;;;25.03;43.55;100603.72;126267;1099;105608;-79
2021/09/11 10:30:15;;;;;;;14.20;6.53;;;;;;;25.11;43.26;100604.42;126320;1099;104668;-78
2021/09/11 10:32:49;;;;;;;15.73;6.70;;;;;;;25.15;43.03;100590.02;126349;1099;104159;-79
2021/09/11 10:35:24;;;;;;;17.27;6.90;;;;;;;25.19;42.27;100591.69;126330;1099;104188;-80
2021/09/11 10:37:58;;;;;;;16.23;6.97;;;;;;;25.27;42.38;100592.41;126307;1099;105351;-80
2021/09/11 10:40:32;;;;;;;13.97;6.63;;;;;;;25.25;40.84;100596.05;126347;1099;104287;-79
2021/09/11 10:43:18;;;;;;;14.40;6.93;;;;;;;25.24;40.58;100588.89;126356;1099;104149;-80
2021/09/11 10:45:59;;;;;;;15.27;6.73;;;;;;;25.17;40.68;100587.30;126279;1099;104169;-80
2021/09/11 10:48:45;;;;;;;13.97;6.80;;;;;;;25.02;39.39;100581.34;126254;1099;104137;-78
2021/09/11 10:51:20;;;;;;;14.23;6.40;;;;;;;25.08;39.71;100574.95;126311;1099;104142;-79
2021/09/11 10:54:15;;;;;;;13.40;6.53;;;;;;;25.18;39.65;100570.25;126268;1099;104172;-79
2021/09/11 10:56:52;;;;;;;16.70;6.73;;;;;;;25.27;38.95;100570.03;126231;1099;104249;-79
2021/09/11 10:59:34;;;;;;;16.80;6.83;;;;;;;25.37;38.26;100570.70;126280;1099;104143;-79
2021/09/11 11:02:12;;;;;;;15.13;6.47;;;;;;;25.46;38.21;100570.48;126293;1099;104191;-79
2021/09/11 11:04:55;;;;;;;14.30;6.70;;;;;;;25.55;37.55;100572.07;126251;1099;104160;-80
2021/09/11 11:07:28;;;;;;;18.53;6.30;;;;;;;25.61;37.79;100567.41;126323;1099;104223;-80
2021/09/11 11:10:00;;;;;;;13.78;6.37;;;;;;;25.64;36.67;100566.47;126257;1099;105473;-81
2021/09/11 11:12:33;;;;;;;14.43;6.57;;;;;;;25.63;37.01;100565.59;126347;1099;104245;-79
2021/09/11 11:15:07;;;;;;;14.18;6.40;;;;;;;25.66;35.20;100559.23;126287;1099;104268;-80
2021/09/11 11:20:32;;;;;;;15.37;7.00;;;;;;;25.72;36.10;100551.02;126263;1099;105492;-78
2021/09/11 11:23:13;;;;;;;17.53;6.67;;;;;;;25.75;36.42;100550.94;126316;1099;104274;-79